Time;durP1;ratioP1;P1;durP2;ratioP2;P2;SDS_P1;SDS_P2;PMS_P1;PMS_P2;Temp;Humidity;BMP_temperature;BMP_pressure;BME280_temperature;BME280_humidity;BME280_pressure;Samples;Min_cycle;Max_cycle;Signal;HPM_P1;HPM_P2
2021/03/24 00:00:45;;;;;;;38.30;19.27;;;-0.30;99.90;;;;;;5051117;28;20020;-68
2021/03/24 00:03:12;;;;;;;36.42;19.33;;;-0.30;99.90;;;;;;5070047;28;20078;-67
2021/03/24 00:05:40;;;;;;;37.72;20.33;;;-0.30;99.90;;;;;;5070926;28;20052;-68
2021/03/24 00:08:07;;;;;;;45.45;21.27;;;-0.30;99.90;;;;;;5070687;28;20028;-68
2021/03/24 00:10:34;;;;;;;37.47;19.50;;;-0.30;99.90;;;;;;5070630;28;20548;-67
2021/03/24 00:13:00;;;;;;;41.65;19.50;;;-0.40;99.90;;;;;;5070199;28;20032;-67
2021/03/24 00:15:27;;;;;;;38.15;20.65;;;-0.40;99.90;;;;;;5070555;28;20098;-66
2021/03/24 00:17:53;;;;;;;41.38;20.65;;;-0.40;99.90;;;;;;5070413;28;20143;-67
2021/03/24 00:20:25;;;;;;;34.78;19.58;;;-0.40;99.90;;;;;;5070451;28;20472;-66
2021/03/24 00:22:51;;;;;;;;;;;-0.50;99.90;;;;;;5070064;28;20032;-66
2021/03/24 00:25:17;;;;;;;40.40;20.23;;;-0.50;99.90;;;;;;5073684;28;19911;-67
2021/03/24 00:27:44;;;;;;;40.33;19.65;;;-0.50;99.90;;;;;;5070824;28;20025;-69
2021/03/24 00:30:11;;;;;;;42.10;20.40;;;-0.50;99.90;;;;;;5093431;23;20041;-68
2021/03/24 00:32:37;;;;;;;39.50;19.90;;;-0.60;99.90;;;;;;5070259;28;20016;-68
2021/03/24 00:35:06;;;;;;;37.33;20.02;;;-0.50;99.90;;;;;;5072319;28;20020;-69
2021/03/24 00:37:32;;;;;;;39.10;19.52;;;-0.60;99.90;;;;;;5060093;28;20377;-69
2021/03/24 00:39:58;;;;;;;42.58;21.35;;;-0.60;99.90;;;;;;5042856;28;20108;-67
2021/03/24 00:42:24;;;;;;;38.95;19.65;;;-0.60;99.90;;;;;;5029589;28;20424;-68
2021/03/24 00:44:50;;;;;;;36.03;20.20;;;-0.70;99.90;;;;;;5030095;28;20029;-68
2021/03/24 00:47:16;;;;;;;41.33;20.30;;;-0.70;99.90;;;;;;5030701;28;20036;-68
2021/03/24 00:49:42;;;;;;;45.15;20.73;;;-0.60;99.90;;;;;;5030974;28;20025;-68
2021/03/24 00:52:08;;;;;;;41.80;21.00;;;-0.60;99.90;;;;;;5034481;28;20017;-66
2021/03/24 00:54:33;;;;;;;42.00;20.77;;;-0.70;99.90;;;;;;5052584;28;20021;-67
2021/03/24 00:56:59;;;;;;;38.97;20.35;;;-0.70;99.90;;;;;;5065461;28;20017;-67
2021/03/24 00:59:24;;;;;;;39.45;20.85;;;-0.80;99.90;;;;;;5062133;28;20024;-69
2021/03/24 01:01:50;;;;;;;42.28;20.13;;;-0.80;99.90;;;;;;5051912;28;20028;-68
2021/03/24 01:04:16;;;;;;;36.65;19.67;;;-0.80;99.90;;;;;;5050748;28;20025;-67
2021/03/24 01:06:42;;;;;;;41.95;21.38;;;-0.80;99.90;;;;;;5050526;28;20067;-68
2021/03/24 01:09:09;;;;;;;48.55;22.50;;;-0.70;99.90;;;;;;5049738;28;20017;-68
2021/03/24 01:11:40;;;;;;;41.58;19.83;;;-0.80;99.90;;;;;;5050372;28;20459;-67
2021/03/24 01:14:08;;;;;;;46.05;21.75;;;-0.80;99.90;;;;;;5049438;28;20063;-67
2021/03/24 01:16:35;;;;;;;45.78;20.73;;;-0.80;99.90;;;;;;5050343;28;20027;-68
2021/03/24 01:19:01;;;;;;;37.25;20.50;;;-0.80;99.90;;;;;;5049479;28;20113;-67
2021/03/24 01:21:27;;;;;;;45.45;23.30;;;-0.90;99.90;;;;;;5050376;28;20060;-67
2021/03/24 01:23:52;;;;;;;42.80;21.52;;;-0.80;99.90;;;;;;5049599;28;20037;-68
2021/03/24 01:26:19;;;;;;;43.80;22.88;;;-0.80;99.90;;;;;;5049500;28;20025;-67
2021/03/24 01:28:44;;;;;;;39.72;21.23;;;-0.90;99.90;;;;;;5050056;28;20061;-68
2021/03/24 01:31:10;;;;;;;38.28;20.60;;;-1.00;99.90;;;;;;5053209;28;20068;-68
2021/03/24 01:33:36;;;;;;;44.13;20.58;;;-1.00;99.90;;;;;;5053198;28;20032;-68
2021/03/24 01:36:02;;;;;;;48.28;22.85;;;-1.10;99.90;;;;;;5053867;28;20394;-68
2021/03/24 01:38:28;;;;;;;45.05;22.17;;;-1.10;99.90;;;;;;5053390;28;20025;-69
2021/03/24 01:40:57;;;;;;;43.63;21.98;;;-1.10;99.90;;;;;;5053639;28;20372;-69
2021/03/24 01:43:27;;;;;;;41.88;21.50;;;-1.10;99.90;;;;;;5052820;28;20390;-68
2021/03/24 01:46:17;;;;;;;37.20;20.40;;;-1.10;99.90;;;;;;5053724;28;20025;-68
2021/03/24 01:48:48;;;;;;;44.75;20.63;;;-1.10;99.90;;;;;;5053519;28;20434;-72
2021/03/24 01:51:15;;;;;;;40.25;21.02;;;-1.20;99.90;;;;;;5053595;28;20171;-67
2021/03/24 01:53:41;;;;;;;41.95;21.52;;;-1.20;99.90;;;;;;5052621;28;20021;-68
2021/03/24 01:56:09;;;;;;;44.30;22.10;;;-1.10;99.90;;;;;;5052333;28;20020;-67
2021/03/24 01:58:36;;;;;;;42.22;20.70;;;-1.10;99.90;;;;;;5053421;28;20387;-68
2021/03/24 02:01:06;;;;;;;45.63;23.58;;;-1.10;99.90;;;;;;5053345;28;20107;-67
2021/03/24 02:03:32;;;;;;;47.13;23.40;;;-1.10;99.90;;;;;;5053413;28;20025;-67
2021/03/24 02:05:59;;;;;;;45.92;23.38;;;-1.10;99.90;;;;;;5053533;28;20029;-69
2021/03/24 02:08:37;;;;;;;50.13;23.90;;;-1.20;99.90;;;;;;5053495;28;20021;-67
2021/03/24 02:11:22;;;;;;;46.78;23.15;;;-1.20;99.90;;;;;;5053519;28;20727;-70
2021/03/24 02:13:55;;;;;;;45.05;23.67;;;-1.20;99.90;;;;;;5052274;28;20078;-70
2021/03/24 02:16:29;;;;;;;54.92;24.10;;;-1.20;99.90;;;;;;5051651;28;20077;-70
2021/03/24 02:18:57;;;;;;;52.63;26.40;;;-1.20;99.90;;;;;;5052976;28;20021;-68
2021/03/24 02:21:34;;;;;;;47.13;26.00;;;-1.20;99.90;;;;;;5053205;28;20053;-69
2021/03/24 02:24:11;;;;;;;61.58;27.15;;;-1.20;99.90;;;;;;5052506;28;20048;-69
2021/03/24 02:26:45;;;;;;;59.67;28.25;;;-1.20;99.90;;;;;;5052843;28;20036;-68
2021/03/24 02:29:15;;;;;;;59.22;28.58;;;-1.20;99.90;;;;;;5032735;28;20033;-70
2021/03/24 02:31:41;;;;;;;58.85;28.83;;;-1.20;99.90;;;;;;5032939;28;20037;-68
2021/03/24 02:34:12;;;;;;;62.35;28.92;;;-1.20;99.90;;;;;;5032085;28;20022;-68
2021/03/24 02:36:39;;;;;;;52.47;27.15;;;-1.20;99.90;;;;;;5032756;28;20467;-69
2021/03/24 02:39:10;;;;;;;57.28;26.60;;;-1.20;99.90;;;;;;5037880;28;20029;-70
2021/03/24 02:41:38;;;;;;;56.50;26.00;;;-1.30;99.90;;;;;;5052015;28;20068;-67
2021/03/24 02:44:04;;;;;;;57.33;25.85;;;-1.30;99.90;;;;;;5051383;28;20055;-70
2021/03/24 02:46:31;;;;;;;47.13;24.67;;;-1.40;99.90;;;;;;5051296;28;20048;-70
2021/03/24 02:48:59;;;;;;;43.78;23.33;;;-1.40;99.90;;;;;;5052949;28;20180;-66
2021/03/24 02:51:25;;;;;;;47.17;24.42;;;-1.40;99.90;;;;;;5052450;28;20075;-67
2021/03/24 02:53:53;;;;;;;47.42;24.63;;;-1.50;99.90;;;;;;5050861;28;20045;-67
2021/03/24 02:56:18;;;;;;;44.08;24.83;;;-1.50;99.90;;;;;;5052211;28;20466;-67
2021/03/24 02:58:44;;;;;;;51.83;25.08;;;-1.50;99.90;;;;;;5052293;28;20021;-66
2021/03/24 03:01:21;;;;;;;48.67;24.90;;;-1.50;99.90;;;;;;5053983;28;20032;-69
2021/03/24 03:03:51;;;;;;;60.38;27.23;;;-1.50;99.90;;;;;;5052402;28;20025;-67
2021/03/24 03:06:20;;;;;;;53.45;26.42;;;-1.50;99.90;;;;;;5053348;28;20017;-67
2021/03/24 03:08:51;;;;;;;49.97;25.00;;;-1.40;99.90;;;;;;5053326;28;20487;-68
2021/03/24 03:11:20;;;;;;;55.55;26.48;;;-1.40;99.90;;;;;;5052777;28;20085;-69
2021/03/24 03:13:55;;;;;;;58.53;27.13;;;-1.50;99.90;;;;;;5052218;28;20044;-69
2021/03/24 03:16:35;;;;;;;60.60;27.13;;;-1.40;99.90;;;;;;5052049;28;20075;-68
2021/03/24 03:19:17;;;;;;;55.30;27.02;;;-1.50;99.90;;;;;;5052209;28;20696;-68
2021/03/24 03:21:48;;;;;;;50.03;24.45;;;-1.50;99.90;;;;;;5051760;28;20040;-67
2021/03/24 03:24:16;;;;;;;53.75;25.88;;;-1.50;99.90;;;;;;5052514;28;20021;-67
2021/03/24 03:26:43;;;;;;;54.95;26.58;;;-1.60;99.90;;;;;;5053469;28;20033;-69
2021/03/24 03:29:14;;;;;;;54.22;24.65;;;-1.60;99.90;;;;;;5052790;28;20021;-67
2021/03/24 03:31:43;;;;;;;50.40;25.42;;;-1.60;99.90;;;;;;5051794;28;20033;-68
2021/03/24 03:34:11;;;;;;;53.40;25.30;;;-1.70;99.90;;;;;;5052445;28;20025;-67
2021/03/24 03:36:40;;;;;;;60.05;27.23;;;-1.60;99.90;;;;;;5051401;28;20067;-69
2021/03/24 03:39:13;;;;;;;53.67;25.10;;;-1.70;99.90;;;;;;5053129;28;20025;-67
2021/03/24 03:41:40;;;;;;;55.05;26.60;;;-1.70;99.90;;;;;;5052833;28;20078;-68
2021/03/24 03:44:07;;;;;;;57.42;26.90;;;-1.70;99.90;;;;;;5050386;28;20029;-68
2021/03/24 03:46:36;;;;;;;53.28;25.23;;;-1.70;99.90;;;;;;5052328;28;20024;-67
2021/03/24 03:49:02;;;;;;;49.47;25.73;;;-1.80;99.90;;;;;;5052582;28;20047;-67
2021/03/24 03:51:33;;;;;;;50.22;26.25;;;-1.80;99.90;;;;;;5052523;28;20386;-67
2021/03/24 03:54:20;;;;;;;50.25;25.80;;;-1.80;99.90;;;;;;5050845;28;20427;-68
2021/03/24 03:56:45;;;;;;;56.90;26.88;;;-1.90;99.90;;;;;;5052083;28;20108;-69
2021/03/24 03:59:16;;;;;;;48.03;25.55;;;-1.90;99.90;;;;;;5050572;28;20048;-67
2021/03/24 04:01:51;;;;;;;50.63;26.23;;;-1.80;99.90;;;;;;5052647;28;20078;-69
2021/03/24 04:04:30;;;;;;;53.55;26.50;;;-1.80;99.90;;;;;;5052687;28;20020;-68
2021/03/24 04:07:02;;;;;;;55.63;26.67;;;-1.80;99.90;;;;;;5052546;28;20040;-68
2021/03/24 04:09:28;;;;;;;60.65;26.27;;;-1.80;99.90;;;;;;5051634;28;20033;-67
2021/03/24 04:11:54;;;;;;;49.00;25.00;;;-1.80;99.90;;;;;;5052783;28;20024;-68
2021/03/24 04:14:23;;;;;;;56.28;27.05;;;-1.90;99.90;;;;;;5051648;28;20021;-67
2021/03/24 04:16:50;;;;;;;52.53;26.13;;;-2.00;99.90;;;;;;5052459;28;20421;-67
2021/03/24 04:19:19;;;;;;;53.95;26.27;;;-1.90;99.90;;;;;;5052473;28;20025;-69
2021/03/24 04:21:55;;;;;;;50.05;25.60;;;-1.90;99.90;;;;;;5052498;28;20135;-68
2021/03/24 04:24:32;;;;;;;50.30;25.60;;;-1.90;99.90;;;;;;5052051;28;20116;-68
2021/03/24 04:27:00;;;;;;;49.08;25.02;;;-2.00;99.90;;;;;;5052197;28;20024;-68
2021/03/24 04:29:37;;;;;;;51.75;23.30;;;-2.00;99.90;;;;;;5051001;28;20025;-69
2021/03/24 04:32:04;;;;;;;51.67;24.63;;;-2.00;99.90;;;;;;5052416;28;20029;-68
2021/03/24 04:34:31;;;;;;;50.42;24.67;;;-2.00;99.90;;;;;;5051723;28;20048;-68
2021/03/24 04:37:16;;;;;;;50.50;25.15;;;-2.00;99.90;;;;;;5052357;28;20021;-68
2021/03/24 04:39:48;;;;;;;48.97;24.85;;;-2.00;99.90;;;;;;5051504;28;20052;-69
2021/03/24 04:42:32;;;;;;;48.65;23.83;;;-2.00;99.90;;;;;;5052014;28;20021;-68
2021/03/24 04:45:01;;;;;;;51.95;25.42;;;-2.00;99.90;;;;;;5050968;28;20040;-67
2021/03/24 04:47:32;;;;;;;45.65;23.08;;;-2.00;99.90;;;;;;5051783;28;20024;-69
2021/03/24 04:50:07;;;;;;;46.20;24.65;;;-2.10;99.90;;;;;;5032156;28;20029;-68
2021/03/24 04:52:35;;;;;;;47.08;23.63;;;-2.10;99.90;;;;;;5032127;28;20033;-68
2021/03/24 04:55:12;;;;;;;49.80;23.58;;;-2.20;99.90;;;;;;5031496;28;20036;-69
2021/03/24 04:57:38;;;;;;;51.70;23.23;;;-2.10;99.90;;;;;;5032282;28;20021;-68
2021/03/24 05:00:20;;;;;;;47.90;24.30;;;-2.10;99.90;;;;;;5031043;28;20021;-68
2021/03/24 05:02:53;;;;;;;51.20;25.15;;;-2.10;99.90;;;;;;5031296;28;20102;-69
2021/03/24 05:05:30;;;;;;;48.97;25.17;;;-2.10;99.90;;;;;;5033376;28;20080;-70
2021/03/24 05:08:22;;;;;;;51.58;23.20;;;-2.10;99.90;;;;;;5036560;28;20026;-68
2021/03/24 05:10:51;;;;;;;43.63;23.95;;;-2.10;99.90;;;;;;5055868;28;20076;-68
2021/03/24 05:13:40;;;;;;;45.70;22.52;;;-2.20;99.90;;;;;;5056194;28;20170;-69
2021/03/24 05:16:15;;;;;;;50.15;24.38;;;-2.10;99.90;;;;;;5056275;28;20422;-69
2021/03/24 05:18:41;;;;;;;47.35;24.30;;;-2.10;99.90;;;;;;5056387;28;20071;-68
2021/03/24 05:21:17;;;;;;;43.35;22.38;;;-2.10;99.90;;;;;;5056437;28;20402;-68
2021/03/24 05:23:46;;;;;;;51.83;23.85;;;-2.00;99.90;;;;;;5055193;28;20036;-68
2021/03/24 05:26:33;;;;;;;50.50;24.20;;;-2.10;99.90;;;;;;5047949;28;20056;-69
2021/03/24 05:29:05;;;;;;;48.70;23.40;;;-2.10;99.90;;;;;;5049243;28;20029;-68
2021/03/24 05:31:39;;;;;;;50.72;24.70;;;-2.00;99.90;;;;;;5056797;28;20405;-68
2021/03/24 05:34:13;;;;;;;45.80;23.65;;;-2.00;99.90;;;;;;5076857;28;20116;-69
2021/03/24 05:36:47;;;;;;;53.70;25.80;;;-1.90;99.90;;;;;;5076675;28;20020;-68
2021/03/24 05:39:31;;;;;;;56.08;25.48;;;-1.80;99.90;;;;;;5069970;28;20067;-68
2021/03/24 05:42:18;;;;;;;55.03;26.52;;;-1.80;99.90;;;;;;5056533;28;20013;-68
2021/03/24 05:45:26;;;;;;;48.95;25.77;;;-1.80;99.90;;;;;;5064169;28;20061;-69
2021/03/24 05:48:01;;;;;;;51.20;26.13;;;-1.80;99.90;;;;;;5076707;28;20035;-68
2021/03/24 05:50:33;;;;;;;54.45;26.83;;;-1.80;99.90;;;;;;5076723;28;20478;-66
2021/03/24 05:53:31;;;;;;;53.25;27.00;;;-1.70;99.90;;;;;;5076942;28;20024;-67
2021/03/24 05:56:11;;;;;;;54.35;25.70;;;-1.70;99.90;;;;;;5076463;28;20036;-68
2021/03/24 05:59:06;;;;;;;46.78;24.77;;;-1.60;99.90;;;;;;5075115;28;20020;-68
2021/03/24 06:01:44;;;;;;;53.22;24.95;;;-1.50;99.90;;;;;;5075117;28;20397;-69
2021/03/24 06:04:35;;;;;;;60.90;27.08;;;-1.50;99.90;;;;;;5074380;28;20024;-73
2021/03/24 06:07:21;;;;;;;55.20;26.92;;;-1.40;99.90;;;;;;5064796;28;20036;-71
2021/03/24 06:10:05;;;;;;;57.28;27.67;;;-0.80;99.90;;;;;;5040286;28;20037;-72
2021/03/24 06:13:06;;;;;;;46.58;25.77;;;-1.20;99.90;;;;;;5054082;28;20468;-71
2021/03/24 06:15:46;;;;;;;45.88;25.42;;;-1.10;99.90;;;;;;5053544;28;20560;-73
2021/03/24 06:18:39;;;;;;;60.38;28.27;;;-1.00;99.90;;;;;;5053886;28;20052;-71
2021/03/24 06:21:21;;;;;;;68.32;29.50;;;-0.90;99.90;;;;;;5063304;28;20024;-72
2021/03/24 06:24:15;;;;;;;52.88;26.10;;;-0.10;99.90;;;;;;5070664;28;20029;-71
2021/03/24 06:27:18;;;;;;;45.67;24.80;;;0.10;99.90;;;;;;5055553;28;20032;-75
2021/03/24 06:30:02;;;;;;;46.47;21.40;;;0.20;99.90;;;;;;5023375;28;20049;-68
2021/03/24 06:33:02;;;;;;;38.65;21.73;;;0.10;99.90;;;;;;5055868;28;20081;-69
2021/03/24 06:35:54;;;;;;;40.05;23.00;;;-0.10;99.90;;;;;;5056809;28;20021;-68
2021/03/24 06:38:40;;;;;;;41.57;22.83;;;-0.20;99.90;;;;;;5056323;28;20867;-67
2021/03/24 06:41:45;;;;;;;39.53;21.73;;;-0.20;99.90;;;;;;5056061;28;20478;-68
2021/03/24 06:44:32;;;;;;;41.45;22.88;;;-0.20;99.90;;;;;;5044408;28;20041;-67
2021/03/24 06:47:04;;;;;;;49.05;23.35;;;-0.10;99.90;;;;;;5061294;28;20043;-66
2021/03/24 06:49:45;;;;;;;43.30;22.42;;;0.00;99.90;;;;;;5057868;28;20028;-65
2021/03/24 06:52:35;;;;;;;47.75;24.52;;;0.10;99.90;;;;;;5057684;28;20109;-67
2021/03/24 06:55:30;;;;;;;43.60;25.15;;;0.20;99.90;;;;;;5054950;28;20021;-66
2021/03/24 06:58:33;;;;;;;43.95;22.95;;;0.30;99.90;;;;;;5053151;28;20074;-67
2021/03/24 07:01:29;;;;;;;42.92;23.00;;;0.30;99.90;;;;;;5053456;28;20514;-68
2021/03/24 07:04:10;;;;;;;43.47;20.98;;;0.40;99.90;;;;;;5054499;28;20037;-67
2021/03/24 07:07:03;;;;;;;63.03;31.10;;;1.90;99.90;;;;;;5054287;28;20386;-67
2021/03/24 07:09:53;;;;;;;54.65;26.27;;;1.90;99.90;;;;;;5053948;28;20028;-67
2021/03/24 07:12:47;;;;;;;44.13;24.20;;;1.50;99.90;;;;;;5052918;28;20074;-68
2021/03/24 07:15:57;;;;;;;38.85;21.98;;;1.30;99.90;;;;;;5048842;28;20032;-67
2021/03/24 07:18:58;;;;;;;37.55;21.40;;;1.30;99.90;;;;;;5014893;28;20562;-66
2021/03/24 07:21:44;;;;;;;35.47;19.90;;;1.30;99.90;;;;;;5040788;28;20025;-67
2021/03/24 07:24:34;;;;;;;37.17;19.13;;;1.40;99.90;;;;;;5045040;28;20104;-66
2021/03/24 07:27:43;;;;;;;37.35;20.88;;;1.60;99.90;;;;;;5043218;28;20398;-67
2021/03/24 07:30:27;;;;;;;34.65;20.67;;;1.70;99.90;;;;;;5055535;28;20085;-68
2021/03/24 07:33:06;;;;;;;39.97;23.48;;;1.80;99.90;;;;;;5050928;28;20241;-67
2021/03/24 07:36:12;;;;;;;46.17;22.55;;;1.90;99.90;;;;;;5051973;28;20029;-67
2021/03/24 07:39:06;;;;;;;40.55;22.15;;;2.10;99.90;;;;;;5060589;28;20694;-67
2021/03/24 07:41:41;;;;;;;32.05;18.67;;;2.20;99.90;;;;;;5059266;28;20242;-70
2021/03/24 07:44:27;;;;;;;32.30;19.42;;;2.20;99.90;;;;;;5054148;28;20033;-70
2021/03/24 07:47:19;;;;;;;38.33;20.40;;;2.60;99.90;;;;;;5057678;28;20029;-67
2021/03/24 07:49:57;;;;;;;32.13;17.70;;;4.20;99.90;;;;;;5067471;28;20032;-69
2021/03/24 07:52:38;;;;;;;33.67;18.40;;;4.00;99.90;;;;;;5075065;28;20406;-66
2021/03/24 07:55:15;;;;;;;28.00;16.33;;;5.70;99.90;;;;;;5075115;28;20103;-69
2021/03/24 07:58:04;;;;;;;25.55;15.77;;;4.90;99.90;;;;;;5074241;28;20427;-69
2021/03/24 08:00:59;;;;;;;30.17;18.00;;;4.30;99.90;;;;;;5057823;28;20733;-74
2021/03/24 08:03:37;;;;;;;25.75;16.27;;;5.50;99.90;;;;;;5029845;28;20116;-65
2021/03/24 08:06:38;;;;;;;31.20;15.13;;;7.10;99.90;;;;;;5033311;28;20502;-70
2021/03/24 08:09:24;;;;;;;24.90;15.10;;;10.10;99.90;;;;;;4999428;28;20052;-72
2021/03/24 08:12:14;;;;;;;25.02;16.15;;;9.40;99.90;;;;;;5031049;28;20034;-72
2021/03/24 08:15:16;;;;;;;29.42;16.35;;;7.80;99.90;;;;;;5034457;28;20026;-73
2021/03/24 08:18:38;;;;;;;25.90;14.83;;;6.60;99.90;;;;;;5042266;28;20021;-72
2021/03/24 08:21:16;;;;;;;30.48;16.25;;;6.10;99.90;;;;;;4986176;28;20111;-74
2021/03/24 08:23:57;;;;;;;27.70;15.68;;;5.40;99.90;;;;;;5052076;28;20055;-72
2021/03/24 08:26:30;;;;;;;21.92;14.77;;;5.30;99.90;;;;;;5043942;28;20475;-72
2021/03/24 08:29:02;;;;;;;25.23;15.90;;;5.80;99.90;;;;;;5066490;28;20044;-72
2021/03/24 08:32:04;;;;;;;24.05;16.48;;;6.40;99.90;;;;;;5072797;28;20024;-71
2021/03/24 08:34:58;;;;;;;24.08;16.27;;;6.60;99.90;;;;;;5061012;28;20033;-71
2021/03/24 08:37:48;;;;;;;22.73;14.88;;;7.10;99.90;;;;;;5064675;28;20036;-72
2021/03/24 08:40:56;;;;;;;24.08;14.85;;;7.30;99.90;;;;;;5062584;28;20028;-74
2021/03/24 08:43:40;;;;;;;23.83;14.90;;;7.80;99.90;;;;;;5066511;28;20447;-71
2021/03/24 08:46:32;;;;;;;21.10;15.05;;;8.10;99.90;;;;;;5063736;28;20486;-72
2021/03/24 08:49:29;;;;;;;22.02;15.73;;;7.90;99.90;;;;;;5045786;28;20044;-72
2021/03/24 08:52:23;;;;;;;22.10;15.25;;;8.20;99.90;;;;;;5059842;28;20052;-72
2021/03/24 08:54:58;;;;;;;19.55;14.55;;;9.10;99.90;;;;;;5060590;28;20021;-71
2021/03/24 08:57:30;;;;;;;19.95;14.63;;;9.10;99.90;;;;;;5080865;28;20053;-71
2021/03/24 09:00:34;;;;;;;23.08;14.95;;;8.70;99.90;;;;;;5085450;28;20029;-71
2021/03/24 09:03:34;;;;;;;20.55;14.75;;;8.60;99.90;;;;;;5055037;28;20036;-71
2021/03/24 09:06:27;;;;;;;22.92;15.07;;;10.30;99.90;;;;;;5083075;28;20024;-71
2021/03/24 09:09:15;;;;;;;24.50;14.70;;;9.30;99.90;;;;;;5084968;28;20029;-72
2021/03/24 09:11:49;;;;;;;20.83;14.55;;;9.70;99.90;;;;;;5073652;28;20052;-72
2021/03/24 09:14:24;;;;;;;21.10;15.23;;;10.40;99.90;;;;;;5072933;28;20017;-72
2021/03/24 09:17:15;;;;;;;18.05;13.60;;;11.20;99.90;;;;;;5073654;28;20002;-71
2021/03/24 09:20:19;;;;;;;18.58;13.02;;;11.70;99.90;;;;;;5072124;28;20055;-72
2021/03/24 09:23:03;;;;;;;16.88;13.82;;;12.40;98.00;;;;;;5056968;28;20025;-72
2021/03/24 09:25:55;;;;;;;17.10;12.75;;;11.90;96.80;;;;;;5063615;28;20077;-73
2021/03/24 09:28:27;;;;;;;18.20;13.37;;;11.80;99.60;;;;;;5069670;28;20029;-71
2021/03/24 09:31:14;;;;;;;18.30;15.25;;;12.90;98.20;;;;;;5070887;28;20291;-72
2021/03/24 09:33:51;;;;;;;17.02;12.52;;;13.90;94.80;;;;;;5071261;28;20101;-72
2021/03/24 09:36:30;;;;;;;16.25;11.80;;;13.40;92.90;;;;;;5065368;28;20096;-72
2021/03/24 09:38:57;;;;;;;15.82;12.43;;;12.60;95.00;;;;;;5065864;28;20025;-72
2021/03/24 09:41:49;;;;;;;15.25;12.75;;;12.60;94.60;;;;;;5065131;28;20083;-72
2021/03/24 09:44:33;;;;;;;18.50;12.38;;;11.00;97.70;;;;;;5065934;28;20056;-72
2021/03/24 09:47:00;;;;;;;15.88;12.50;;;11.50;97.50;;;;;;5048109;28;20033;-72
2021/03/24 09:49:38;;;;;;;17.52;13.48;;;12.20;97.20;;;;;;5044583;28;20036;-72
2021/03/24 09:52:07;;;;;;;16.58;13.02;;;12.80;94.60;;;;;;5063731;28;20123;-73
2021/03/24 09:54:34;;;;;;;15.70;12.50;;;13.80;94.60;;;;;;5068366;28;20707;-72
2021/03/24 09:57:07;;;;;;;14.60;12.07;;;14.60;92.40;;;;;;5069832;28;20171;-72
2021/03/24 09:59:58;;;;;;;13.23;11.80;;;13.50;93.10;;;;;;5089979;28;20066;-75
2021/03/24 10:02:39;;;;;;;13.27;11.77;;;15.30;91.50;;;;;;5087894;28;20024;-72
2021/03/24 10:05:13;;;;;;;13.48;11.48;;;17.30;87.30;;;;;;5087740;28;20022;-73
2021/03/24 10:07:59;;;;;;;11.95;9.82;;;17.40;78.50;;;;;;5086248;28;20017;-72
2021/03/24 10:10:30;;;;;;;14.93;11.85;;;16.10;80.00;;;;;;5082429;28;20032;-71
2021/03/24 10:13:02;;;;;;;12.23;10.57;;;14.30;89.60;;;;;;5075735;28;20479;-72
2021/03/24 10:15:39;;;;;;;15.27;12.13;;;15.50;85.00;;;;;;5076789;28;20024;-72
2021/03/24 10:18:22;;;;;;;18.30;12.75;;;17.40;80.60;;;;;;5086621;28;20020;-71
2021/03/24 10:20:51;;;;;;;15.43;11.77;;;15.30;84.20;;;;;;5086223;28;20043;-71
2021/03/24 10:23:24;;;;;;;13.75;10.88;;;16.10;81.20;;;;;;5072345;28;20033;-73
2021/03/24 10:25:58;;;;;;;12.75;11.02;;;14.10;85.70;;;;;;5052102;28;20030;-72
2021/03/24 10:28:43;;;;;;;15.95;10.48;;;15.20;90.00;;;;;;5047906;28;20029;-75
2021/03/24 10:31:14;;;;;;;13.60;10.50;;;15.90;84.90;;;;;;5036397;28;20033;-71
2021/03/24 10:34:19;;;;;;;15.00;11.37;;;17.00;82.50;;;;;;5035433;28;20096;-72
2021/03/24 10:37:06;;;;;;;14.75;10.82;;;18.20;76.40;;;;;;5035079;28;20264;-71
2021/03/24 10:39:59;;;;;;;14.27;10.80;;;19.40;73.10;;;;;;5047466;28;20025;-72
2021/03/24 10:42:56;;;;;;;12.60;10.18;;;19.40;69.70;;;;;;5068801;23;20064;-72
2021/03/24 10:45:21;;;;;;;12.20;10.55;;;18.90;67.00;;;;;;5064974;28;20063;-72
2021/03/24 10:48:16;;;;;;;13.98;11.25;;;18.00;75.30;;;;;;5062753;28;20477;-72
2021/03/24 10:50:57;;;;;;;14.00;10.10;;;18.70;69.80;;;;;;5072634;28;20020;-72
2021/03/24 10:53:36;;;;;;;11.80;9.45;;;19.20;67.60;;;;;;5052195;28;20078;-72
2021/03/24 10:56:36;;;;;;;10.65;9.25;;;20.00;67.60;;;;;;5053214;28;20482;-72
2021/03/24 10:59:04;;;;;;;12.15;9.48;;;19.90;64.80;;;;;;5089674;28;20020;-72
2021/03/24 11:01:54;;;;;;;7.65;6.80;;;19.90;65.10;;;;;;5094620;28;20029;-72
2021/03/24 11:04:52;;;;;;;9.13;7.47;;;21.30;58.80;;;;;;5090803;28;20389;-74
2021/03/24 11:07:31;;;;;;;7.85;7.03;;;21.80;58.30;;;;;;5048345;28;20081;-73
2021/03/24 11:10:37;;;;;;;9.43;6.65;;;22.70;54.30;;;;;;5092730;28;20065;-72
2021/03/24 11:13:26;;;;;;;6.90;6.05;;;22.40;55.50;;;;;;5061282;28;20124;-72
2021/03/24 11:15:55;;;;;;;7.13;6.43;;;22.90;52.60;;;;;;5073544;28;20111;-73
2021/03/24 11:18:29;;;;;;;11.27;8.75;;;22.40;55.20;;;;;;5092566;28;20020;-73
2021/03/24 11:20:58;;;;;;;10.30;7.88;;;21.60;54.00;;;;;;5068771;28;20536;-72
2021/03/24 11:23:46;;;;;;;9.20;7.95;;;21.10;55.40;;;;;;5071968;28;20024;-72
2021/03/24 11:26:47;;;;;;;10.15;8.13;;;18.30;60.30;;;;;;5072350;28;20036;-72
2021/03/24 11:29:17;;;;;;;8.73;7.47;;;19.00;62.00;;;;;;5072487;28;20024;-73
2021/03/24 11:32:11;;;;;;;9.85;7.65;;;20.60;61.00;;;;;;5070809;28;20026;-72
2021/03/24 11:34:48;;;;;;;7.28;6.57;;;21.70;56.10;;;;;;5071950;28;20020;-72
2021/03/24 11:37:17;;;;;;;6.78;5.95;;;23.50;52.30;;;;;;5082468;28;20052;-71
2021/03/24 11:39:48;;;;;;;8.70;6.57;;;21.80;53.10;;;;;;5087561;28;20024;-71
2021/03/24 11:42:25;;;;;;;7.25;6.00;;;20.90;53.00;;;;;;5087868;28;20029;-72
2021/03/24 11:44:55;;;;;;;6.15;4.90;;;20.00;52.80;;;;;;5089843;28;20020;-73
2021/03/24 11:47:42;;;;;;;6.50;5.35;;;20.00;57.10;;;;;;5088201;28;20031;-72
2021/03/24 11:50:14;;;;;;;7.00;5.13;;;20.20;53.10;;;;;;5092057;28;20064;-73
2021/03/24 11:52:46;;;;;;;18.17;7.10;;;20.90;55.70;;;;;;5088582;28;20008;-73
2021/03/24 11:55:28;;;;;;;5.70;4.93;;;22.10;52.50;;;;;;5085322;28;20016;-72
2021/03/24 11:58:22;;;;;;;5.90;4.13;;;22.20;50.50;;;;;;5084432;28;20025;-72
2021/03/24 12:01:44;;;;;;;5.38;4.88;;;22.50;50.70;;;;;;5089262;28;20115;-72
2021/03/24 12:04:12;;;;;;;;;;;20.80;50.90;;;;;;5007859;28;20065;-72
2021/03/24 12:07:00;;;;;;;8.00;6.03;;;21.20;52.20;;;;;;5030095;28;19908;-73
2021/03/24 12:09:35;;;;;;;5.03;4.57;;;22.80;49.60;;;;;;5063799;28;20021;-74
2021/03/24 12:12:19;;;;;;;5.85;5.25;;;25.00;48.30;;;;;;5047136;28;20100;-72
2021/03/24 12:15:10;;;;;;;6.43;5.82;;;26.60;43.80;;;;;;5062111;28;20025;-74
2021/03/24 12:17:42;;;;;;;6.55;5.68;;;25.10;45.70;;;;;;5063565;28;20048;-71
2021/03/24 12:20:23;;;;;;;5.78;4.90;;;23.00;44.40;;;;;;5063279;28;20039;-71
2021/03/24 12:22:58;;;;;;;5.20;4.70;;;21.50;48.60;;;;;;5058385;28;20029;-72
2021/03/24 12:25:31;;;;;;;5.18;4.68;;;21.70;48.80;;;;;;5063978;28;20021;-71
2021/03/24 12:28:14;;;;;;;5.68;4.70;;;22.90;47.80;;;;;;5064259;28;20031;-72
2021/03/24 12:30:45;;;;;;;7.20;5.90;;;21.50;48.30;;;;;;5071041;28;20456;-71
2021/03/24 12:33:14;;;;;;;6.40;4.30;;;20.00;50.20;;;;;;5069273;28;20024;-70
2021/03/24 12:35:40;;;;;;;4.05;2.67;;;20.90;50.70;;;;;;5078807;28;20536;-68
2021/03/24 12:38:15;;;;;;;3.42;3.13;;;22.00;45.30;;;;;;5093890;28;20064;-70
2021/03/24 12:40:50;;;;;;;6.35;5.75;;;23.40;45.30;;;;;;5105747;28;20036;-69
2021/03/24 12:43:33;;;;;;;4.90;4.05;;;25.40;43.90;;;;;;5106267;28;20016;-72
2021/03/24 12:46:21;;;;;;;2.45;2.25;;;22.10;45.40;;;;;;5089513;28;20363;-70
2021/03/24 12:48:58;;;;;;;6.18;3.28;;;23.30;42.20;;;;;;5092396;28;20032;-69
2021/03/24 12:51:29;;;;;;;2.10;1.90;;;25.90;40.50;;;;;;5070689;28;20031;-68
2021/03/24 12:53:59;;;;;;;1.67;1.58;;;25.30;37.30;;;;;;5070845;28;20034;-69
2021/03/24 12:56:34;;;;;;;2.85;1.40;;;24.10;37.20;;;;;;5070941;28;20095;-71
2021/03/24 12:59:20;;;;;;;1.10;1.10;;;23.80;37.70;;;;;;5071223;28;20029;-69
2021/03/24 13:02:13;;;;;;;13.60;2.75;;;24.50;35.90;;;;;;5070906;28;20478;-72
2021/03/24 13:04:57;;;;;;;40.25;6.60;;;26.10;36.20;;;;;;5070196;28;20032;-71
2021/03/24 13:07:50;;;;;;;42.45;6.55;;;25.80;38.40;;;;;;5070770;28;20450;-70
2021/03/24 13:10:40;;;;;;;2.75;2.45;;;26.40;34.10;;;;;;5070946;28;20020;-70
2021/03/24 13:13:15;;;;;;;8.55;4.22;;;24.40;39.60;;;;;;5068721;28;20032;-70
2021/03/24 13:16:11;;;;;;;4.40;3.55;;;24.80;38.50;;;;;;5070172;28;20509;-71
2021/03/24 13:19:08;;;;;;;3.88;3.45;;;24.20;40.80;;;;;;5070570;28;20479;-71
2021/03/24 13:22:00;;;;;;;4.28;3.88;;;26.90;38.10;;;;;;5034808;28;20046;-71
2021/03/24 13:25:09;;;;;;;3.38;3.08;;;24.00;39.90;;;;;;5073023;28;20631;-71
2021/03/24 13:28:06;;;;;;;4.97;3.55;;;22.20;42.30;;;;;;5056691;28;20031;-71
2021/03/24 13:30:41;;;;;;;9.77;3.53;;;21.50;42.20;;;;;;5056058;28;20402;-71